createdAt,value
2023-02-21T00:05:06.815Z,20.92
2023-02-21T00:10:30.498Z,20.93
2023-02-21T00:15:51.160Z,20.91
2023-02-21T00:21:11.313Z,20.92
2023-02-21T00:26:37.120Z,20.90
2023-02-21T00:31:57.688Z,20.93
2023-02-21T00:37:18.022Z,20.89
2023-02-21T00:42:39.801Z,20.96
2023-02-21T00:48:00.321Z,20.94
2023-02-21T00:53:20.573Z,21.02
2023-02-21T00:58:42.033Z,21.01
2023-02-21T01:04:02.184Z,20.97
2023-02-21T01:09:22.746Z,20.97
2023-02-21T01:14:44.525Z,20.98
2023-02-21T01:20:04.711Z,20.98
2023-02-21T01:25:27.853Z,21.09
2023-02-21T01:30:49.678Z,21.01
2023-02-21T01:36:09.927Z,21.02
2023-02-21T01:41:30.115Z,21.06
2023-02-21T01:46:51.762Z,20.95
2023-02-21T01:52:13.179Z,20.97
2023-02-21T01:57:33.261Z,20.97
2023-02-21T02:02:56.780Z,20.99
2023-02-21T02:08:17.239Z,20.97
2023-02-21T02:13:31.657Z,21.02
2023-02-21T02:19:06.282Z,20.98
2023-02-21T02:24:41.562Z,20.92
2023-02-21T02:30:14.847Z,20.93
2023-02-21T02:35:20.042Z,20.96
2023-02-21T02:40:27.829Z,21.04
2023-02-21T02:45:33.320Z,21.07
2023-02-21T02:50:39.073Z,21.05
2023-02-21T02:55:42.948Z,21.07
2023-02-21T03:00:49.464Z,21.13
2023-02-21T03:06:01.844Z,21.06
2023-02-21T03:11:07.463Z,21.03
2023-02-21T03:16:15.261Z,21.06
2023-02-21T03:21:23.514Z,21.07
2023-02-21T03:26:26.553Z,21.07
2023-02-21T03:31:35.609Z,21.06
2023-02-21T03:36:39.975Z,21.07
2023-02-21T03:41:43.468Z,21.06
2023-02-21T03:46:46.504Z,21.05
2023-02-21T03:51:50.982Z,21.07
2023-02-21T03:56:53.875Z,21.04
2023-02-21T04:02:01.399Z,21.14
2023-02-21T04:07:08.838Z,21.03
2023-02-21T04:12:12.612Z,21.05
2023-02-21T04:17:17.180Z,21.09
2023-02-21T04:22:22.350Z,21.04
2023-02-21T04:27:25.312Z,20.97
2023-02-21T04:32:31.623Z,21.09
2023-02-21T04:37:38.840Z,21.04
2023-02-21T04:42:42.446Z,21.04
2023-02-21T04:47:45.228Z,21.10
2023-02-21T04:52:50.163Z,21.01
2023-02-21T04:57:52.891Z,21.11
2023-02-21T05:02:55.684Z,21.08
2023-02-21T05:07:59.789Z,21.08
2023-02-21T05:13:02.686Z,21.04
2023-02-21T05:18:05.817Z,20.99
2023-02-21T05:23:13.833Z,20.96
2023-02-21T05:28:16.933Z,20.99
2023-02-21T05:33:19.738Z,20.95
2023-02-21T05:38:24.452Z,20.95
2023-02-21T05:43:29.096Z,20.94
2023-02-21T05:48:32.178Z,20.87
2023-02-21T05:53:36.329Z,20.86
2023-02-21T05:58:39.322Z,20.81
2023-02-21T06:03:42.167Z,20.80
2023-02-21T06:08:46.989Z,20.75
2023-02-21T06:13:51.380Z,20.71
2023-02-21T06:18:54.911Z,20.68
2023-02-21T06:23:59.033Z,20.63
2023-02-21T06:29:01.757Z,20.62
2023-02-21T06:34:04.673Z,20.56
2023-02-21T06:39:09.115Z,20.53
2023-02-21T06:44:12.381Z,20.48
2023-02-21T06:49:15.501Z,20.45
2023-02-21T06:54:20.098Z,20.41
2023-02-21T06:59:22.848Z,20.38
2023-02-21T07:04:25.931Z,20.33
2023-02-21T07:09:30.175Z,20.34
2023-02-21T07:14:33.226Z,20.30
2023-02-21T07:19:35.993Z,20.28
2023-02-21T07:24:41.601Z,20.27
2023-02-21T07:29:44.346Z,20.26
2023-02-21T07:34:47.244Z,20.23
2023-02-21T07:39:51.364Z,20.19
2023-02-21T07:44:56.819Z,20.17
2023-02-21T07:49:59.650Z,20.14
2023-02-21T07:55:03.793Z,20.11
2023-02-21T08:00:07.506Z,20.12
2023-02-21T08:05:15.966Z,20.14
2023-02-21T08:10:24.074Z,20.14
2023-02-21T08:15:26.920Z,20.13
2023-02-21T08:20:29.820Z,20.12
2023-02-21T08:25:33.986Z,20.12
2023-02-21T08:30:36.834Z,20.13
2023-02-21T08:35:39.656Z,20.13
2023-02-21T08:40:43.819Z,20.07
2023-02-21T08:45:46.608Z,20.10
2023-02-21T08:50:49.955Z,20.14
2023-02-21T08:55:54.152Z,20.13
2023-02-21T09:00:57.106Z,20.16
2023-02-21T09:06:00.136Z,20.17
2023-02-21T09:11:04.569Z,20.16
2023-02-21T09:16:08.012Z,20.16
2023-02-21T09:21:10.872Z,20.12
2023-02-21T09:26:15.638Z,20.09
2023-02-21T09:31:18.671Z,20.09
2023-02-21T09:36:23.975Z,20.05
2023-02-21T09:41:28.191Z,20.07
2023-02-21T09:46:33.546Z,20.04
2023-02-21T09:51:41.497Z,19.98
2023-02-21T09:56:45.662Z,19.22
2023-02-21T10:01:57.226Z,18.87
2023-02-21T10:07:01.266Z,18.62
2023-02-21T10:12:09.978Z,18.47
2023-02-21T10:17:16.543Z,18.99
2023-02-21T10:22:20.799Z,19.24
2023-02-21T10:27:25.952Z,19.46
2023-02-21T10:32:28.920Z,19.66
2023-02-21T10:37:35.267Z,19.81
2023-02-21T10:42:44.135Z,19.90
2023-02-21T10:47:51.911Z,19.97
2023-02-21T10:52:54.734Z,19.97
2023-02-21T10:57:59.364Z,20.05
2023-02-21T11:03:04.190Z,20.02
2023-02-21T11:08:08.914Z,20.00
2023-02-21T11:13:17.405Z,19.99
2023-02-21T11:18:24.376Z,19.92
2023-02-21T11:23:28.249Z,19.90
2023-02-21T11:28:32.501Z,19.90
2023-02-21T11:33:37.830Z,19.85
2023-02-21T11:38:43.422Z,19.84
2023-02-21T11:43:50.721Z,19.82
2023-02-21T11:48:59.506Z,19.78
2023-02-21T11:54:02.257Z,19.77
2023-02-21T11:59:13.693Z,19.76
2023-02-21T12:04:40.555Z,19.75
2023-02-21T12:09:45.943Z,19.78
2023-02-21T12:14:56.831Z,19.63
2023-02-21T12:20:17.091Z,19.77
2023-02-21T12:25:21.630Z,19.86
2023-02-21T12:30:36.659Z,19.95
2023-02-21T12:36:05.832Z,19.96
2023-02-21T12:41:15.630Z,19.94
2023-02-21T12:46:23.485Z,19.87
2023-02-21T12:51:27.499Z,19.83
2023-02-21T12:56:34.246Z,19.78
2023-02-21T13:01:40.696Z,19.79
2023-02-21T13:06:46.433Z,19.76
2023-02-21T13:11:52.604Z,19.74
2023-02-21T13:16:56.733Z,19.34
2023-02-21T13:22:21.211Z,19.61
2023-02-21T13:27:55.942Z,19.64
2023-02-21T13:33:01.025Z,19.65
2023-02-21T13:38:06.764Z,19.65
2023-02-21T13:43:12.378Z,19.64
2023-02-21T13:48:27.073Z,19.67
2023-02-21T13:53:33.218Z,19.64
2023-02-21T13:58:36.851Z,19.68
2023-02-21T14:03:41.090Z,19.71
2023-02-21T14:08:45.288Z,19.71
2023-02-21T14:13:50.755Z,19.72
2023-02-21T14:18:56.679Z,19.80
2023-02-21T14:24:00.670Z,19.82
2023-02-21T14:29:13.423Z,19.82
2023-02-21T14:34:21.730Z,19.86
2023-02-21T14:39:24.594Z,19.88
2023-02-21T14:44:29.490Z,19.89
2023-02-21T14:49:54.918Z,19.90
2023-02-21T14:55:24.447Z,19.90
2023-02-21T15:00:29.621Z,19.95
2023-02-21T15:05:37.501Z,20.04
2023-02-21T15:10:41.606Z,20.11
2023-02-21T15:15:44.646Z,20.16
2023-02-21T15:20:48.773Z,20.21
2023-02-21T15:25:54.696Z,20.21
2023-02-21T15:31:02.647Z,20.20
2023-02-21T15:36:09.131Z,20.24
2023-02-21T15:41:16.087Z,20.27
2023-02-21T15:46:21.432Z,20.30
2023-02-21T15:51:25.563Z,20.36
2023-02-21T15:56:30.645Z,20.37
2023-02-21T16:01:33.454Z,20.36
2023-02-21T16:06:37.650Z,20.41
2023-02-21T16:11:43.423Z,20.42
2023-02-21T16:16:46.232Z,20.38
2023-02-21T16:21:51.032Z,20.43
2023-02-21T16:27:05.954Z,20.33
2023-02-21T16:32:15.812Z,20.36
2023-02-21T16:37:19.966Z,20.43
2023-02-21T16:42:22.857Z,20.39
2023-02-21T16:47:25.674Z,20.39
2023-02-21T16:52:29.757Z,20.43
2023-02-21T16:57:32.540Z,20.43
2023-02-21T17:02:35.388Z,20.47
2023-02-21T17:07:39.542Z,20.51
2023-02-21T17:12:42.434Z,20.51
2023-02-21T17:17:52.781Z,20.52
2023-02-21T17:22:58.419Z,20.68
2023-02-21T17:28:01.245Z,20.67
2023-02-21T17:33:05.116Z,20.64
2023-02-21T17:38:09.670Z,20.53
2023-02-21T17:43:12.581Z,20.68
2023-02-21T17:48:15.390Z,20.68
2023-02-21T17:53:19.576Z,20.68
2023-02-21T17:58:22.337Z,20.70
2023-02-21T18:03:25.131Z,20.69
2023-02-21T18:08:29.712Z,20.70
2023-02-21T18:13:32.715Z,20.66
2023-02-21T18:18:35.736Z,20.68
2023-02-21T18:23:41.090Z,20.70
2023-02-21T18:28:43.918Z,20.67
2023-02-21T18:33:46.754Z,20.67
2023-02-21T18:38:50.853Z,20.66
2023-02-21T18:43:53.735Z,20.68
2023-02-21T18:48:56.591Z,20.69
2023-02-21T18:54:00.972Z,20.72
2023-02-21T18:59:03.821Z,20.71
2023-02-21T19:04:06.982Z,20.74
2023-02-21T19:09:11.179Z,20.80
2023-02-21T19:14:14.043Z,20.88
2023-02-21T19:19:16.791Z,20.93
2023-02-21T19:24:20.899Z,20.96
2023-02-21T19:29:23.763Z,20.96
2023-02-21T19:34:26.780Z,20.97
2023-02-21T19:39:30.899Z,21.00
2023-02-21T19:44:33.778Z,21.02
2023-02-21T19:49:36.830Z,21.05
2023-02-21T19:54:40.998Z,21.08
2023-02-21T19:59:43.829Z,21.08
2023-02-21T20:04:48.085Z,21.15
2023-02-21T20:09:52.249Z,21.19
2023-02-21T20:14:56.060Z,21.19
2023-02-21T20:19:58.912Z,21.22
2023-02-21T20:25:03.179Z,21.21
2023-02-21T20:30:06.847Z,21.27
2023-02-21T20:35:10.548Z,21.26
2023-02-21T20:40:15.965Z,21.29
2023-02-21T20:45:19.530Z,21.32
2023-02-21T20:50:23.941Z,21.35
2023-02-21T20:55:28.145Z,21.40
2023-02-21T21:00:31.021Z,21.39
2023-02-21T21:05:33.832Z,21.37
2023-02-21T21:10:38.298Z,21.37
2023-02-21T21:15:41.429Z,21.36
2023-02-21T21:20:44.243Z,21.40
2023-02-21T21:25:48.432Z,21.44
2023-02-21T21:30:51.451Z,21.41
2023-02-21T21:35:58.605Z,21.42
2023-02-21T21:41:13.184Z,21.44
2023-02-21T21:46:16.384Z,21.52
2023-02-21T21:51:19.302Z,21.50
2023-02-21T21:56:27.176Z,21.50
2023-02-21T22:01:30.340Z,21.51
2023-02-21T22:06:33.127Z,21.52
2023-02-21T22:11:37.497Z,21.51
2023-02-21T22:16:41.074Z,21.49
2023-02-21T22:21:44.147Z,21.49
2023-02-21T22:26:48.383Z,21.47
2023-02-21T22:31:52.490Z,21.47
2023-02-21T22:36:58.610Z,21.49
2023-02-21T22:42:05.282Z,21.48
2023-02-21T22:47:08.127Z,21.45
2023-02-21T22:52:11.430Z,21.47
2023-02-21T22:57:15.810Z,21.49
2023-02-21T23:02:18.660Z,21.44
2023-02-21T23:07:24.526Z,21.43
2023-02-21T23:12:29.328Z,21.46
2023-02-21T23:17:32.199Z,21.45
2023-02-21T23:22:35.677Z,21.47
2023-02-21T23:27:39.812Z,21.45
2023-02-21T23:32:42.624Z,21.47
2023-02-21T23:37:45.984Z,21.46
2023-02-21T23:42:51.594Z,21.45
2023-02-21T23:47:55.085Z,21.43
2023-02-21T23:52:58.774Z,21.43
2023-02-21T23:58:04.396Z,21.46
